KF4LQQ Weather Reports


Display with metric or nautical units.
time (UTC)temp
F
wind
direction
speed
MPH
gust
MPH
rain 1hr
in
rain 24hr
in
rain mn
in
humidity
%
barometer
mb
20200331100605 71 0 0.0 0.0 0.11 0.00 0.00 1009.4
20200331100139 71 0 0.0 0.0 0.11 0.00 0.00 1009.6
20200331095605 71 0 0.0 0.0 0.11 0.00 0.00 1009.6
20200331094605 71 0 0.0 0.0 0.11 0.00 0.00 1009.6
20200331093607 71 0 0.0 0.0 0.11 0.00 0.00 1009.7
20200331092605 71 0 0.0 0.0 0.11 0.00 0.00 1009.7
20200331090605 71 0 0.0 0.0 0.11 0.00 0.00 1009.7
20200331085605 71 0 0.0 0.0 0.11 0.00 0.00 1009.7
20200331084605 71 0 0.0 0.0 0.11 0.00 0.00 1009.9
20200331083605 71 0 0.0 0.0 0.11 0.00 0.00 1009.8
20200331082605 71 0 0.0 0.0 0.11 0.00 0.00 1010.0
20200331081605 71 0 0.0 0.0 0.11 0.00 0.00 1010.0
20200331080606 71 0 0.0 0.0 0.11 0.00 0.00 1010.1
20200331075605 71 0 0.0 0.0 0.11 0.00 0.00 1010.1
20200331074605 71 0 0.0 0.0 0.11 0.00 0.00 1010.3
20200331073606 72 0 0.0 0.0 0.11 0.00 0.00 1010.5
20200331072605 72 0 0.0 0.0 0.11 0.00 0.00 1010.6
20200331071604 72 0 0.0 0.0 0.11 0.00 0.00 1010.8
20200331071232 72 0 0.0 0.0 0.11 0.00 0.00 1010.7
20200331070613 72 0 0.0 0.0 0.11 0.00 0.00 1010.7
20200331065605 72 0 0.0 0.0 0.11 0.00 0.00 1010.9
20200331064605 72 0 0.0 0.0 0.11 0.00 0.00 1011.0
20200331063604 72 0 0.0 0.0 0.11 0.00 0.00 1011.1
20200331062858 72 0 0.0 0.0 0.11 0.00 0.00 1011.3
20200331062615 72 0 0.0 0.0 0.11 0.00 0.00 1011.3
20200331060606 72 0 0.0 0.0 0.11 0.00 0.00 1011.2
20200331055604 72 0 0.0 0.0 0.11 0.00 0.00 1011.2
20200331054605 72 0 0.0 0.0 0.11 0.00 0.00 1011.1
20200331053604 71 0 0.0 0.0 0.11 0.00 0.00 1011.3
20200331052604 71 0 0.0 0.0 0.11 0.00 0.00 1011.4
20200331051605 72 0 0.0 0.0 0.11 0.00 0.00 1011.6
20200331050604 72 0 0.0 0.0 0.11 0.00 0.00 1011.6
20200331045604 72 0 0.0 0.0 0.11 0.00 0.00 1011.9
20200331044606 72 0 0.0 0.0 0.11 0.00 0.00 1012.2
20200331043604 72 0 0.0 0.0 0.11 0.00 0.00 1012.2
20200331042604 72 0 0.0 0.0 0.11 0.00 0.00 1012.4
20200331041604 72 0 0.0 0.0 0.11 0.00 0.00 1012.2
20200331040604 72 0 0.0 0.0 0.11 0.00 0.00 1012.3
20200331035604 72 0 0.0 0.0 0.11 0.00 0.00 1012.4
20200331034604 72 0 0.0 0.0 0.11 0.00 0.00 1012.6
20200331033605 73 0 0.0 0.0 0.11 0.00 0.00 1012.5
20200331032604 73 322 1.0 3.0 0.11 0.00 0.00 1012.5
20200331031605 73 0 0.0 0.0 0.11 0.00 0.00 1012.2
20200331030606 74 20 3.0 5.0 0.11 0.00 0.00 1012.5
20200331025625 74 18 3.0 4.0 0.11 0.00 0.00 1012.6
20200331024604 74 20 4.0 5.0 0.11 0.00 0.00 1012.7
20200331023605 74 10 1.0 4.0 0.11 0.00 0.00 1012.8
20200331022607 74 345 1.0 3.0 0.11 0.00 0.00 1012.9
20200331021605 74 0 0.0 0.0 0.11 0.00 0.00 1012.7
20200331020605 74 0 0.0 0.0 0.11 0.00 0.00 1012.7
20200331015604 74 0 0.0 0.0 0.11 0.00 0.00 1012.7
20200331014606 75 0 0.0 0.0 0.11 0.00 0.00 1012.6
20200331013606 75 0 0.0 0.0 0.11 0.00 0.00 1012.6
20200331012606 75 0 0.0 0.0 0.11 0.00 0.00 1012.7
20200331011604 75 0 0.0 0.0 0.11 0.00 0.00 1012.8
20200331010605 76 0 0.0 0.0 0.11 0.00 0.00 1012.7
20200331005604 76 314 3.0 4.0 0.11 0.00 0.00 1012.7
20200331004604 77 309 5.0 7.0 0.11 0.00 0.00 1012.8
20200331003604 77 319 4.0 5.0 0.11 0.00 0.00 1012.8
20200331002605 77 308 5.0 7.0 0.11 0.00 0.00 1012.9
20200331001604 77 325 6.0 10.0 0.11 0.00 0.00 1012.8
20200331000604 77 315 5.0 6.0 0.11 0.00 0.00 1012.7
20200330235604 77 318 7.0 11.0 0.11 0.00 0.00 1012.8
20200330234605 78 302 8.0 10.0 0.11 0.00 0.00 1012.8
20200330233604 78 255 6.0 8.0 0.11 0.00 0.00 1012.6
20200330232604 78 288 7.0 10.0 0.11 0.00 0.00 1012.6
20200330231604 79 318 7.0 9.0 0.11 0.00 0.00 1012.5
20200330230604 79 315 6.0 9.0 0.11 0.00 0.00 1012.5
20200330225604 80 270 8.0 12.0 0.11 0.00 0.00 1012.4
20200330224604 80 257 7.0 11.0 0.11 0.00 0.00 1012.4
20200330223605 82 259 8.0 11.0 0.11 0.00 0.00 1012.4
20200330222604 85 298 7.0 12.0 0.11 0.00 0.00 1012.5
20200330221606 84 250 9.0 13.0 0.11 0.00 0.00 1012.5
20200330220604 84 290 9.0 11.0 0.11 0.00 0.00 1012.6
20200330215604 85 278 9.0 13.0 0.11 0.00 0.00 1012.6
20200330213605 86 264 11.0 17.0 0.11 0.00 0.00 1013.0
20200330211604 86 256 9.0 12.0 0.11 0.00 0.00 1012.9
20200330210605 87 246 10.0 16.0 0.11 0.00 0.00 1012.8
20200330205605 88 259 10.0 12.0 0.11 0.00 0.00 1012.8
20200330204604 88 270 8.0 14.0 0.11 0.00 0.00 1012.7
20200330203606 88 260 9.0 13.0 0.11 0.00 0.00 1012.8
20200330202604 88 281 8.0 13.0 0.11 0.00 0.00 1012.8
20200330201605 87 250 7.0 11.0 0.11 0.00 0.00 1012.8
20200330200700 85 242 6.0 10.0 0.11 0.00 0.00 1013.0
20200330200604 85 242 6.0 10.0 0.11 0.00 0.00 1013.0
20200330195604 87 256 7.0 13.0 0.11 0.00 0.00 1013.1
20200330194604 86 298 10.0 17.0 0.11 0.00 0.00 1013.1
20200330193707 86 277 9.0 13.0 0.11 0.00 0.00 1013.7
20200330193604 86 277 9.0 13.0 0.11 0.00 0.00 1013.7
20200330192604 86 285 10.0 17.0 0.11 0.00 0.00 1013.8
20200330191604 87 278 10.0 12.0 0.11 0.00 0.00 1013.9
20200330190604 86 274 10.0 13.0 0.11 0.00 0.00 1014.1
20200330185610 86 273 10.0 14.0 0.11 0.00 0.00 1014.5
20200330184604 86 232 7.0 10.0 0.11 0.00 0.00 1014.7
20200330183604 85 307 9.0 12.0 0.11 0.00 0.00 1014.9
20200330182604 86 264 9.0 11.0 0.11 0.00 0.00 1015.0
20200330181604 84 264 9.0 14.0 0.11 0.00 0.00 1015.1
20200330180604 85 314 8.0 14.0 0.11 0.00 0.00 1015.3
20200330175604 85 300 10.0 13.0 0.11 0.00 0.00 1015.5
20200330174604 84 312 8.0 13.0 0.11 0.00 0.00 1015.7
20200330173720 82 290 10.0 12.0 0.11 0.00 0.00 1015.8
20200330173604 82 290 10.0 12.0 0.11 0.00 0.00 1015.8
20200330172727 82 257 8.0 12.0 0.11 0.00 0.00 1015.8
20200330172604 82 257 8.0 12.0 0.11 0.00 0.00 1015.8
20200330171604 83 319 9.0 12.0 0.11 0.00 0.00 1015.9
20200330170604 82 309 7.0 10.0 0.11 0.00 0.00 1016.1
20200330165604 82 77 3.0 5.0 0.11 0.00 0.00 1016.1
20200330164605 83 249 7.0 8.0 0.11 0.00 0.00 1016.2
20200330163604 84 283 7.0 8.0 0.11 0.00 0.00 1016.3
20200330162643 84 94 6.0 8.0 0.11 0.00 0.00 1016.5
20200330161605 83 246 6.0 7.0 0.11 0.00 0.00 1016.6
20200330160604 82 188 4.0 5.0 0.11 0.00 0.00 1016.8
20200330155605 84 70 6.0 8.0 0.11 0.00 0.00 1017.0
20200330154605 83 240 5.0 7.0 0.11 0.00 0.00 1017.1
20200330153604 81 68 5.0 8.0 0.11 0.00 0.00 1017.2
20200330152604 84 34 7.0 9.0 0.11 0.00 0.00 1017.2
20200330151604 83 44 6.0 8.0 0.11 0.00 0.00 1017.3
20200330150604 78 83 6.0 9.0 0.11 0.00 0.00 1017.6
20200330145604 80 77 7.0 10.0 0.11 0.00 0.00 1017.7
20200330144607 80 84 7.0 10.0 0.11 0.00 0.00 1017.8
20200330143604 80 46 8.0 10.0 0.11 0.00 0.00 1017.8
20200330142604 79 48 6.0 8.0 0.11 0.00 0.00 1017.8
20200330141604 79 49 7.0 10.0 0.11 0.00 0.00 1017.9
20200330140604 77 55 6.0 7.0 0.11 0.00 0.00 1017.9
20200330134605 76 138 4.0 6.0 0.11 0.00 0.00 1017.8
20200330133605 75 42 4.0 7.0 0.11 0.00 0.00 1017.8
20200330132606 74 114 5.0 7.0 0.11 0.00 0.00 1017.8
20200330131607 74 56 2.0 5.0 0.11 0.00 0.00 1017.7
20200330130606 74 257 1.0 4.0 0.11 0.00 0.00 1017.7
20200330125604 73 146 0.0 3.0 0.11 0.00 0.00 1017.5
20200330124605 72 105 4.0 6.0 0.11 0.00 0.00 1017.5
20200330123604 72 46 1.0 3.0 0.11 0.00 0.00 1017.5
20200330122605 71 0 0.0 0.0 0.11 0.00 0.00 1017.6
20200330121604 71 0 0.0 0.0 0.11 0.00 0.00 1017.5
20200330120606 70 0 0.0 0.0 0.11 0.00 0.00 1017.5
20200330114605 70 0 0.0 0.0 0.11 0.00 0.00 1017.6
20200330113606 70 0 0.0 0.0 0.11 0.00 0.00 1017.3
20200330111604 69 0 0.0 0.0 0.11 0.00 0.00 1017.2
20200330110604 69 0 0.0 0.0 0.11 0.00 0.00 1017.0
20200330105604 69 0 0.0 0.0 0.11 0.00 0.00 1016.8
20200330104604 68 0 0.0 0.0 0.11 0.00 0.00 1016.7
20200330103603 68 0 0.0 0.0 0.11 0.00 0.00 1016.5
20200330102604 68 0 0.0 0.0 0.11 0.00 0.00 1016.5
20200330101603 68 0 0.0 0.0 0.11 0.00 0.00 1016.3